Puerto Barrios, Guatemala

6:57 PM CST on July 05, 2015 (GMT -0600)
La Mesa International | | Change Station
CLOSE
Current Station
Airport
Location: La Mesa,
Elevation: 102 ft
Nearby Weather Stations

Elev 102 ft 15.45 °N, 87.93 °W | Updated -123 second ago

Scattered Clouds
Scattered Clouds
82 °F
Feels Like 94 °F
N
12
Wind Variable Wind from NNW

Today
High -- | Low -- °F
--% Chance of Precip.
Yesterday
High -- | Low -- °F
Precip. -- in
5:27 AM 6:29 PM
Waning Gibbous, 80% visible
Pressure 29.95 in
Visibility 6.2 miles
Clouds Few 2800 ft
Scattered Clouds 25000 ft
Heat Index 94 °F
Dew Point 81 °F
Humidity 94%
Rainfall 0.00 in
Snow Depth Not available.
UV 0 out of 12
Pollen Not available.
Air Quality Not available.
Flu Activity Not available.
METAR MHLM 060100Z 34010KT 9999 FEW028 SCT250 28/27 Q1014 A2995 NOSIG

More Conditions Fewer Conditions

Pressure 29.95 in
Visibility 6.2 miles
Clouds Few 2800 ft
Scattered Clouds 25000 ft
Heat Index 94 °F
Dew Point 81 °F
Humidity 94%
Rainfall 0.00 in
Snow Depth Not available.
UV 0 out of 12
Pollen Not available.
Air Quality Not available.
Flu Activity Not available.
METAR MHLM 060100Z 34010KT 9999 FEW028 SCT250 28/27 Q1014 A2995 NOSIG

More Conditions Fewer Conditions

10-Day Weather Forecast

×

Almanac

Astronomy

Jul. 05, 2015 Rise Set
Actual Time
Civil Twilight
Nautical Twilight
Astronomical Twilight
Moon
Length of Visible Light
Length of Day
Tomorrow will be .
, % of the Moon is Illuminated

Today's Extremes

Country Highs Country Lows

Community

WunderPhotos

Upload Photos

1,835,438 photos uploaded!

WunderBlogs® & News

Nearby

Air Quality

  Air Quality AQ Index Pollutant
Not available.

Snow Depth

Station Depth Elevation

Earthquake Activity

City Distance Mag. Time & Date
Minimum magnitude displayed is 2.5.

Coastal Water Temperatures

Place Temperature

Stations

Nearby Weather Stations

Station Location Temp. Windchill Dew Point Humidity Wind Precip. Elev Updated Type